Time;durP1;ratioP1;P1;durP2;ratioP2;P2;SDS_P1;SDS_P2;PMS_P1;PMS_P2;Temp;Humidity;BMP_temperature;BMP_pressure;BME280_temperature;BME280_humidity;BME280_pressure;Samples;Min_cycle;Max_cycle;Signal;HPM_P1;HPM_P2
2022/12/05 00:03:28;;;;;;;118.35;43.63;;;;;;;2.00;100.00;99629.28;8388212;28;20040;-74
2022/12/05 00:07:29;;;;;;;110.82;40.95;;;;;;;2.10;100.00;99618.81;8416701;28;20040;-74
2022/12/05 00:11:33;;;;;;;122.70;42.92;;;;;;;2.03;100.00;99623.47;8426797;28;20036;-73
2022/12/05 00:15:38;;;;;;;117.38;42.97;;;;;;;1.96;100.00;99616.66;8426222;28;20047;-74
2022/12/05 00:19:39;;;;;;;116.65;42.03;;;;;;;1.95;100.00;99610.56;8426381;28;20093;-75
2022/12/05 00:23:40;;;;;;;115.72;42.47;;;;;;;1.91;100.00;99614.72;8407033;28;20097;-75
2022/12/05 00:27:41;;;;;;;117.30;41.60;;;;;;;1.87;100.00;99613.59;8422408;28;20051;-74
2022/12/05 00:31:42;;;;;;;102.88;36.78;;;;;;;1.95;100.00;99615.88;8426273;28;20040;-74
2022/12/05 00:35:43;;;;;;;116.30;40.67;;;;;;;1.85;100.00;99605.03;8425560;28;20040;-73
2022/12/05 00:39:44;;;;;;;110.53;38.38;;;;;;;1.87;100.00;99592.28;8425130;28;20067;-73
2022/12/05 00:43:45;;;;;;;119.63;40.08;;;;;;;1.80;100.00;99591.63;8425687;28;20167;-74
2022/12/05 00:47:46;;;;;;;110.20;39.30;;;;;;;1.81;100.00;99577.25;8425621;28;20509;-74
2022/12/05 00:51:47;;;;;;;103.30;37.17;;;;;;;1.73;100.00;99595.50;8425952;28;20044;-74
2022/12/05 00:55:48;;;;;;;121.45;39.60;;;;;;;1.61;100.00;99592.88;8389959;28;20067;-74
2022/12/05 00:59:49;;;;;;;106.55;38.50;;;;;;;1.67;100.00;99592.75;8425466;28;20440;-74
2022/12/05 01:03:54;;;;;;;112.30;37.63;;;;;;;1.68;100.00;99588.22;8424413;28;20052;-74
2022/12/05 01:07:56;;;;;;;104.97;37.85;;;;;;;1.70;100.00;99586.13;8394506;28;20044;-73
2022/12/05 01:11:56;;;;;;;96.72;37.97;;;;;;;1.73;100.00;99595.50;8425149;28;20048;-74
2022/12/05 01:15:58;;;;;;;112.15;38.13;;;;;;;1.69;100.00;99605.81;8421383;28;20554;-74
2022/12/05 01:19:59;;;;;;;112.90;40.70;;;;;;;1.61;100.00;99598.19;8424775;28;20193;-73
2022/12/05 01:24:00;;;;;;;108.70;37.97;;;;;;;1.59;100.00;99610.94;8384707;28;20044;-74
2022/12/05 01:28:00;;;;;;;108.72;37.75;;;;;;;1.56;100.00;99622.06;8424670;28;20036;-73
2022/12/05 01:32:02;;;;;;;102.28;36.40;;;;;;;1.59;100.00;99622.38;8424677;28;20098;-74
2022/12/05 01:36:03;;;;;;;112.72;37.42;;;;;;;1.66;100.00;99617.75;8429690;28;20044;-74
2022/12/05 01:40:05;;;;;;;96.57;35.65;;;;;;;1.56;100.00;99616.75;8375948;28;20075;-74
2022/12/05 01:44:12;;;;;;;99.20;36.58;;;;;;;1.53;100.00;99612.72;8393199;28;20036;-73
2022/12/05 01:48:31;;;;;;;96.43;36.45;;;;;;;1.61;100.00;99608.84;8431076;28;20569;-74
2022/12/05 01:52:32;;;;;;;;;;;;;;;1.74;100.00;99603.25;8410976;28;20056;-74
2022/12/05 01:56:33;;;;;;;108.30;36.80;;;;;;;1.65;100.00;99604.66;8430568;28;19965;-74
2022/12/05 02:00:34;;;;;;;106.35;35.88;;;;;;;1.65;100.00;99588.69;8412376;28;20048;-74
2022/12/05 02:04:40;;;;;;;99.82;36.13;;;;;;;1.64;100.00;99592.38;8430342;28;20123;-73
2022/12/05 02:08:42;;;;;;;108.65;37.53;;;;;;;1.64;100.00;99598.53;8382602;28;20048;-74
2022/12/05 02:18:07;;;;;;;110.80;36.90;;;;;;;1.57;100.00;99594.41;8426628;28;20196;-73
2022/12/05 02:22:30;;;;;;;93.80;36.13;;;;;;;1.61;100.00;99593.69;8430008;28;20051;-74
2022/12/05 02:26:49;;;;;;;97.82;34.97;;;;;;;1.67;100.00;99581.28;8429683;28;20531;-73
2022/12/05 02:36:20;;;;;;;100.18;37.20;;;;;;;1.65;100.00;99583.38;8424705;28;20486;-74
2022/12/05 02:40:27;;;;;;;104.78;34.95;;;;;;;1.64;100.00;99581.75;8392604;28;20040;-74
2022/12/05 02:44:32;;;;;;;98.93;36.70;;;;;;;1.64;100.00;99571.09;8420965;28;20093;-75
2022/12/05 02:48:34;;;;;;;103.97;36.85;;;;;;;1.65;100.00;99572.72;8389918;28;20052;-74
2022/12/05 02:52:35;;;;;;;96.20;33.85;;;;;;;1.62;100.00;99574.00;8411487;28;20055;-74
2022/12/05 02:56:37;;;;;;;97.55;36.67;;;;;;;1.66;100.00;99574.34;8409445;28;20040;-75
2022/12/05 03:00:39;;;;;;;107.90;38.30;;;;;;;1.63;100.00;99572.16;8410044;28;20089;-73
2022/12/05 03:04:40;;;;;;;107.18;38.00;;;;;;;1.62;100.00;99567.88;8409446;28;20064;-75
2022/12/05 03:08:48;;;;;;;112.40;37.92;;;;;;;1.63;100.00;99569.50;8391353;28;20060;-73
2022/12/05 03:13:04;;;;;;;94.68;35.90;;;;;;;1.56;100.00;99574.16;8410707;28;20290;-74
2022/12/05 03:17:09;;;;;;;100.93;35.45;;;;;;;1.65;100.00;99567.38;8409076;28;20560;-74
2022/12/05 03:21:38;;;;;;;99.88;35.45;;;;;;;1.60;100.00;99569.97;8359142;28;20513;-74
2022/12/05 03:25:54;;;;;;;99.22;36.53;;;;;;;1.61;100.00;99560.94;8408216;28;20039;-73
2022/12/05 03:30:05;;;;;;;92.40;31.27;;;;;;;1.57;100.00;99559.81;8410210;28;20048;-74
2022/12/05 03:34:13;;;;;;;98.95;35.60;;;;;;;1.54;100.00;99544.28;8409576;28;20043;-74
2022/12/05 03:38:34;;;;;;;94.22;34.53;;;;;;;1.55;100.00;99548.56;8427596;28;20052;-74
2022/12/05 03:42:40;;;;;;;90.75;33.85;;;;;;;1.54;100.00;99545.09;8409199;28;20375;-75
2022/12/05 03:46:51;;;;;;;87.90;33.92;;;;;;;1.55;100.00;99545.91;8427589;28;20048;-74
2022/12/05 03:50:53;;;;;;;89.10;32.65;;;;;;;1.59;100.00;99547.03;8421106;28;20508;-73
2022/12/05 03:55:00;;;;;;;87.88;34.92;;;;;;;1.56;100.00;99542.22;8427339;28;20354;-74
2022/12/05 03:59:38;;;;;;;92.47;34.67;;;;;;;1.57;100.00;99549.16;8408948;28;20043;-74
2022/12/05 04:03:43;;;;;;;89.43;34.30;;;;;;;1.54;100.00;99554.94;8407957;28;20040;-74
2022/12/05 04:07:45;;;;;;;94.10;35.83;;;;;;;1.49;100.00;99553.00;8408289;28;20096;-73
2022/12/05 04:12:07;;;;;;;100.78;37.13;;;;;;;1.55;100.00;99551.22;8408544;28;20044;-73
2022/12/05 04:29:28;;;;;;;95.82;33.70;;;;;;;1.45;100.00;99535.09;8317981;28;20508;-74
2022/12/05 04:33:32;;;;;;;85.10;33.63;;;;;;;1.50;100.00;99532.50;8332551;28;20107;-74
2022/12/05 04:37:36;;;;;;;83.78;32.30;;;;;;;1.54;100.00;99530.97;8339150;28;20368;-73
2022/12/05 04:41:46;;;;;;;89.03;33.88;;;;;;;1.48;100.00;99523.97;8288561;28;20052;-74
2022/12/05 04:45:47;;;;;;;93.82;34.17;;;;;;;1.49;100.00;99528.22;8312751;28;20048;-73
2022/12/05 04:49:50;;;;;;;89.38;33.00;;;;;;;1.50;100.00;99527.19;8314322;28;20049;-73
2022/12/05 04:53:54;;;;;;;89.20;34.47;;;;;;;1.46;100.00;99520.75;8300758;28;20528;-74
2022/12/05 04:57:59;;;;;;;93.82;33.10;;;;;;;1.46;100.00;99520.75;8335357;28;20681;-74
2022/12/05 05:02:09;;;;;;;80.15;30.80;;;;;;;1.46;100.00;99536.72;8357011;28;20118;-74
2022/12/05 05:06:11;;;;;;;83.38;31.55;;;;;;;1.42;100.00;99530.25;8371106;28;20041;-73
2022/12/05 05:10:15;;;;;;;82.72;32.83;;;;;;;1.48;100.00;99534.63;8363180;28;20099;-73
2022/12/05 05:14:16;;;;;;;82.47;32.42;;;;;;;1.50;100.00;99532.50;8362721;28;20049;-74
2022/12/05 05:18:17;;;;;;;77.50;31.27;;;;;;;1.46;100.00;99536.72;8364556;28;20478;-74
2022/12/05 05:22:18;;;;;;;78.80;32.17;;;;;;;1.50;100.00;99537.84;8345597;28;20056;-73
2022/12/05 05:26:20;;;;;;;77.82;30.33;;;;;;;1.47;100.00;99544.47;8359328;28;20056;-73
2022/12/05 05:30:22;;;;;;;73.95;32.45;;;;;;;1.47;100.00;99548.97;8346477;28;20041;-74
2022/12/05 05:34:25;;;;;;;82.82;32.78;;;;;;;1.39;100.00;99562.66;8363775;28;20483;-74
2022/12/05 05:38:26;;;;;;;84.28;33.67;;;;;;;1.40;100.00;99558.94;8363766;28;20065;-73
2022/12/05 05:42:27;;;;;;;82.03;32.65;;;;;;;1.43;100.00;99553.16;8361854;28;20075;-73
2022/12/05 05:46:30;;;;;;;87.18;32.85;;;;;;;1.50;100.00;99551.16;8363688;28;20049;-73
2022/12/05 05:50:31;;;;;;;82.05;31.85;;;;;;;1.51;100.00;99558.91;8430328;28;20056;-74
2022/12/05 05:54:32;;;;;;;79.20;32.90;;;;;;;1.48;100.00;99555.91;8391650;28;20040;-73
2022/12/05 05:58:33;;;;;;;75.82;31.42;;;;;;;1.50;100.00;99564.44;8424411;28;20185;-74
2022/12/05 06:02:35;;;;;;;74.13;29.90;;;;;;;1.50;100.00;99565.25;8430173;28;20493;-73
2022/12/05 06:06:36;;;;;;;83.18;32.65;;;;;;;1.48;100.00;99555.91;8429813;28;20270;-74
2022/12/05 06:10:38;;;;;;;83.10;33.22;;;;;;;1.41;100.00;99561.38;8394211;28;20058;-73
2022/12/05 06:14:38;;;;;;;81.32;32.95;;;;;;;1.39;100.00;99567.97;8393706;28;20395;-74
2022/12/05 06:18:40;;;;;;;82.85;32.80;;;;;;;1.42;100.00;99556.88;8425004;28;20051;-73
2022/12/05 06:22:41;;;;;;;83.47;33.03;;;;;;;1.43;100.00;99563.81;8429950;28;20044;-74
2022/12/05 06:26:42;;;;;;;80.07;32.50;;;;;;;1.42;100.00;99562.19;8431675;28;20072;-78
2022/12/05 06:30:43;;;;;;;83.07;33.03;;;;;;;1.40;100.00;99556.28;8429160;28;20056;-77
2022/12/05 06:34:44;;;;;;;83.38;31.92;;;;;;;1.42;100.00;99562.19;8413433;28;20044;-77
2022/12/05 06:38:45;;;;;;;88.20;34.30;;;;;;;1.42;100.00;99567.50;8424459;28;20048;-77
2022/12/05 06:42:46;;;;;;;86.20;33.25;;;;;;;1.45;100.00;99572.34;8422453;28;20052;-77
2022/12/05 06:46:47;;;;;;;82.28;31.95;;;;;;;1.56;100.00;99574.97;8413353;28;20056;-76
2022/12/05 06:50:50;;;;;;;82.13;33.83;;;;;;;1.59;100.00;99579.00;8429914;28;20051;-77
2022/12/05 06:54:51;;;;;;;80.97;33.00;;;;;;;1.65;100.00;99578.03;8430135;28;20552;-76
2022/12/05 06:58:52;;;;;;;78.05;30.70;;;;;;;1.67;100.00;99575.97;8391679;28;20036;-76
2022/12/05 07:02:53;;;;;;;78.38;31.17;;;;;;;1.66;100.00;99579.66;8428852;28;20048;-76
2022/12/05 07:06:54;;;;;;;79.13;31.15;;;;;;;1.68;100.00;99564.25;8428468;28;20035;-78
2022/12/05 07:10:55;;;;;;;76.43;33.03;;;;;;;1.74;100.00;99563.31;8373589;28;20097;-76
2022/12/05 07:14:56;;;;;;;82.15;32.55;;;;;;;1.72;100.00;99568.06;8428328;28;20058;-75
2022/12/05 07:18:58;;;;;;;90.57;34.65;;;;;;;1.76;100.00;99569.19;8429581;28;20052;-76
2022/12/05 07:22:58;;;;;;;84.13;34.42;;;;;;;1.76;100.00;99568.38;8429559;28;20543;-75
2022/12/05 07:26:59;;;;;;;85.30;32.50;;;;;;;1.75;100.00;99566.75;8428843;28;20074;-76
2022/12/05 07:31:02;;;;;;;82.85;34.80;;;;;;;1.81;100.00;99571.94;8413579;28;20048;-76
2022/12/05 07:35:04;;;;;;;85.50;34.90;;;;;;;1.86;100.00;99564.03;8418711;28;20059;-76
2022/12/05 07:39:05;;;;;;;88.03;36.58;;;;;;;1.90;100.00;99565.19;8392205;28;20051;-76
2022/12/05 07:43:06;;;;;;;80.43;34.33;;;;;;;1.83;100.00;99569.84;8428109;28;20383;-76
2022/12/05 07:47:07;;;;;;;86.00;34.88;;;;;;;1.85;100.00;99573.06;8429697;28;20109;-76
2022/12/05 07:51:09;;;;;;;88.00;36.40;;;;;;;1.93;100.00;99578.00;8396758;28;20397;-76
2022/12/05 07:55:09;;;;;;;85.53;34.58;;;;;;;1.95;100.00;99575.94;8424235;28;20051;-73
2022/12/05 07:59:10;;;;;;;89.18;34.35;;;;;;;1.98;100.00;99578.09;8430147;28;20052;-74
2022/12/05 08:03:11;;;;;;;75.82;31.90;;;;;;;1.97;100.00;99581.81;8431760;28;20540;-73
2022/12/05 08:07:12;;;;;;;81.85;33.30;;;;;;;2.03;100.00;99580.84;8437527;28;20113;-73
2022/12/05 08:11:16;;;;;;;83.88;34.05;;;;;;;1.98;100.00;99586.09;8414666;28;20048;-74
2022/12/05 08:15:17;;;;;;;83.70;33.92;;;;;;;1.97;100.00;99596.97;8430771;28;20076;-74
2022/12/05 08:19:18;;;;;;;80.03;33.28;;;;;;;1.91;100.00;99593.41;8427217;28;20105;-74
2022/12/05 08:23:19;;;;;;;84.05;35.17;;;;;;;1.93;100.00;99591.31;8424220;28;20036;-73
2022/12/05 08:27:20;;;;;;;87.63;32.85;;;;;;;1.91;100.00;99597.94;8425742;28;20440;-74
2022/12/05 08:31:23;;;;;;;89.70;35.28;;;;;;;1.86;100.00;99596.00;8419918;28;20049;-74
2022/12/05 08:35:24;;;;;;;91.65;37.78;;;;;;;1.93;100.00;99599.31;8419262;28;20051;-74
2022/12/05 08:39:26;;;;;;;94.63;38.47;;;;;;;2.01;100.00;99588.25;8421963;28;20040;-74
2022/12/05 08:43:28;;;;;;;86.28;36.83;;;;;;;2.05;100.00;99600.06;8433009;28;20056;-75
2022/12/05 08:47:29;;;;;;;106.07;39.88;;;;;;;2.04;100.00;99609.09;8407630;28;20272;-74
2022/12/05 08:51:30;;;;;;;85.97;35.40;;;;;;;2.06;100.00;99601.66;8427566;28;20040;-75
2022/12/05 08:55:33;;;;;;;93.03;36.58;;;;;;;2.12;100.00;99600.69;8426881;28;20047;-74
2022/12/05 08:59:34;;;;;;;93.90;38.72;;;;;;;2.10;100.00;99608.16;8409089;28;20048;-75
2022/12/05 09:03:35;;;;;;;95.30;39.83;;;;;;;2.10;100.00;99612.66;8426999;28;20052;-75
2022/12/05 09:07:36;;;;;;;90.85;38.33;;;;;;;2.07;100.00;99608.59;8427018;28;20052;-74
2022/12/05 09:11:45;;;;;;;102.63;40.08;;;;;;;2.13;100.00;99617.50;8413942;28;20077;-75
2022/12/05 09:15:46;;;;;;;98.90;38.33;;;;;;;2.16;100.00;99610.88;8376140;28;20048;-75
2022/12/05 09:19:50;;;;;;;101.68;39.65;;;;;;;2.12;100.00;99605.22;8426625;28;20531;-75
2022/12/05 09:23:52;;;;;;;89.80;38.53;;;;;;;2.16;100.00;99610.88;8426764;28;20044;-75
2022/12/05 09:27:53;;;;;;;100.78;38.35;;;;;;;2.23;100.00;99608.84;8423452;28;20490;-74
2022/12/05 09:31:54;;;;;;;97.22;39.85;;;;;;;2.21;100.00;99608.31;8407165;28;20529;-76
2022/12/05 09:35:56;;;;;;;89.80;35.85;;;;;;;2.19;100.00;99599.72;8420147;28;20103;-74
2022/12/05 09:39:59;;;;;;;96.82;39.30;;;;;;;2.25;100.00;99588.13;8416321;28;20044;-76
2022/12/05 09:44:04;;;;;;;99.50;38.17;;;;;;;2.30;100.00;99580.19;8423403;28;20039;-75
2022/12/05 09:48:15;;;;;;;98.35;40.38;;;;;;;2.40;100.00;99572.34;8416177;28;20139;-75
2022/12/05 09:52:25;;;;;;;99.97;40.42;;;;;;;2.43;100.00;99574.56;8408250;28;20097;-74
2022/12/05 09:56:29;;;;;;;91.15;39.15;;;;;;;2.45;100.00;99561.75;8412106;28;20486;-75
2022/12/05 10:00:31;;;;;;;93.47;39.55;;;;;;;2.50;100.00;99554.66;8432186;28;20052;-74
2022/12/05 10:04:50;;;;;;;88.90;37.25;;;;;;;2.48;100.00;99566.63;8414111;28;20504;-74
2022/12/05 10:09:07;;;;;;;94.95;38.28;;;;;;;2.50;100.00;99559.16;8419980;28;20478;-75
2022/12/05 10:13:29;;;;;;;84.03;37.67;;;;;;;2.51;100.00;99560.78;8431803;28;20468;-75
2022/12/05 10:17:37;;;;;;;90.38;37.25;;;;;;;2.54;100.00;99555.75;8431951;28;20418;-75
2022/12/05 10:21:49;;;;;;;85.72;36.17;;;;;;;2.61;100.00;99560.94;8425888;28;20048;-74
2022/12/05 10:25:56;;;;;;;84.72;34.88;;;;;;;2.63;100.00;99553.50;8425884;28;20040;-75
2022/12/05 10:30:18;;;;;;;85.97;36.63;;;;;;;2.60;100.00;99543.31;8431669;28;20052;-75
2022/12/05 10:34:40;;;;;;;89.78;36.78;;;;;;;2.64;100.00;99549.78;8417526;28;20048;-74
2022/12/05 10:38:42;;;;;;;85.10;35.28;;;;;;;2.71;100.00;99539.72;8413411;28;20048;-75
2022/12/05 10:42:43;;;;;;;84.45;36.42;;;;;;;2.67;100.00;99538.63;8386390;28;20092;-75
2022/12/05 10:46:44;;;;;;;82.80;36.92;;;;;;;2.74;100.00;99539.25;8412330;28;20044;-75
2022/12/05 10:50:49;;;;;;;80.80;35.25;;;;;;;2.74;100.00;99533.91;8430530;28;20071;-75
2022/12/05 10:55:05;;;;;;;85.13;38.05;;;;;;;2.87;100.00;99544.22;8411191;28;20098;-75
2022/12/05 10:59:08;;;;;;;85.43;36.30;;;;;;;2.88;100.00;99545.81;8430526;28;20563;-74
2022/12/05 11:03:24;;;;;;;81.03;37.17;;;;;;;2.80;100.00;99532.91;8430118;28;20042;-76
2022/12/05 11:07:31;;;;;;;79.93;36.72;;;;;;;2.80;100.00;99543.56;8418256;28;20056;-75
2022/12/05 11:11:33;;;;;;;81.82;36.90;;;;;;;2.80;100.00;99532.91;8429850;28;20502;-75
2022/12/05 11:15:43;;;;;;;81.65;36.58;;;;;;;2.82;100.00;99536.16;8411986;28;20052;-75
2022/12/05 11:19:44;;;;;;;90.40;38.05;;;;;;;2.81;100.00;99539.88;8429653;28;20177;-74
2022/12/05 11:23:48;;;;;;;91.05;38.67;;;;;;;2.84;100.00;99539.38;8412230;28;20047;-75
2022/12/05 11:27:49;;;;;;;87.05;39.35;;;;;;;2.87;100.00;99541.53;8427037;28;20451;-75
2022/12/05 11:31:51;;;;;;;89.60;37.55;;;;;;;2.96;100.00;99518.69;8410223;28;20052;-75
2022/12/05 11:35:56;;;;;;;87.03;35.97;;;;;;;3.08;100.00;99528.44;8425753;28;20056;-75
2022/12/05 11:39:59;;;;;;;89.78;37.35;;;;;;;3.02;100.00;99530.25;8429327;28;20547;-75
2022/12/05 11:44:32;;;;;;;86.38;39.20;;;;;;;2.93;100.00;99527.22;8429008;28;20048;-75
2022/12/05 11:49:02;;;;;;;87.65;37.60;;;;;;;2.94;100.00;99520.84;8394167;28;20527;-75
2022/12/05 11:53:09;;;;;;;;;;;;;;;2.91;100.00;99523.97;8394619;28;20062;-75
2022/12/05 11:57:42;;;;;;;77.75;35.25;;;;;;;2.98;100.00;99524.59;8393889;28;20397;-75
2022/12/05 12:01:50;;;;;;;91.28;40.53;;;;;;;2.86;100.00;99525.78;8394938;28;20040;-74
2022/12/05 12:06:09;;;;;;;96.43;40.47;;;;;;;2.86;100.00;99515.91;8395205;28;20052;-75
2022/12/05 12:10:43;;;;;;;90.97;40.65;;;;;;;2.88;100.00;99524.50;8394640;28;20052;-75
2022/12/05 12:15:07;;;;;;;93.05;39.67;;;;;;;2.92;100.00;99520.25;8291518;28;20108;-75
2022/12/05 12:19:29;;;;;;;84.93;39.22;;;;;;;2.95;100.00;99519.78;8290815;28;20133;-75
2022/12/05 12:23:39;;;;;;;97.28;40.03;;;;;;;3.00;100.00;99526.22;8291641;28;20550;-76
2022/12/05 12:28:34;;;;;;;95.30;41.67;;;;;;;2.92;100.00;99514.94;8291429;28;20393;-75
2022/12/05 12:32:41;;;;;;;101.97;42.65;;;;;;;2.91;100.00;99513.31;8226702;28;20058;-75
2022/12/05 12:37:08;;;;;;;104.28;42.13;;;;;;;2.93;100.00;99505.88;8226816;28;20559;-75
2022/12/05 12:41:21;;;;;;;88.80;40.00;;;;;;;2.92;100.00;99504.25;8143451;29;20051;-75
2022/12/05 12:45:47;;;;;;;83.20;38.25;;;;;;;2.94;100.00;99512.81;8131584;29;20063;-75
2022/12/05 12:50:15;;;;;;;87.47;38.53;;;;;;;2.98;100.00;99513.94;8154064;28;20410;-75
2022/12/05 12:54:32;;;;;;;83.07;38.80;;;;;;;2.96;100.00;99516.03;8147061;28;20054;-75
2022/12/05 12:59:04;;;;;;;82.90;39.88;;;;;;;2.96;100.00;99526.72;8206514;28;20568;-75
2022/12/05 13:03:37;;;;;;;90.45;39.05;;;;;;;2.92;100.00;99522.94;8218322;28;20459;-75
2022/12/05 13:07:43;;;;;;;96.50;43.72;;;;;;;2.91;100.00;99529.31;8162502;29;20553;-75
2022/12/05 13:11:44;;;;;;;115.85;49.08;;;;;;;2.91;100.00;99534.66;8162410;29;20099;-75
2022/12/05 13:15:53;;;;;;;95.05;40.63;;;;;;;2.86;100.00;99526.59;8164561;28;20053;-75
2022/12/05 13:19:56;;;;;;;94.72;42.22;;;;;;;2.88;100.00;99516.50;8305591;28;20563;-75
2022/12/05 13:24:02;;;;;;;88.80;42.97;;;;;;;2.90;100.00;99519.72;8306003;28;20059;-75
2022/12/05 13:28:07;;;;;;;86.85;40.55;;;;;;;2.91;100.00;99517.84;8307187;28;20045;-75
2022/12/05 13:32:37;;;;;;;96.35;42.92;;;;;;;2.91;100.00;99523.16;8294346;28;20060;-75
2022/12/05 13:45:19;;;;;;;98.93;42.30;;;;;;;3.01;100.00;99517.97;8279818;28;20053;-75
2022/12/05 13:49:30;;;;;;;90.25;40.42;;;;;;;3.01;100.00;99517.16;8329246;28;20049;-76
2022/12/05 13:53:41;;;;;;;90.82;41.90;;;;;;;2.94;100.00;99512.81;8328979;28;20506;-75
2022/12/05 13:57:43;;;;;;;91.60;40.30;;;;;;;2.89;100.00;99510.09;8312376;28;20051;-75
2022/12/05 14:01:46;;;;;;;92.22;41.10;;;;;;;2.83;100.00;99521.75;8328546;28;20049;-75
2022/12/05 14:05:54;;;;;;;97.00;44.65;;;;;;;2.82;100.00;99530.81;8328680;28;20561;-76
2022/12/05 14:09:55;;;;;;;95.97;42.07;;;;;;;2.80;100.00;99527.56;8383507;28;20052;-75
2022/12/05 14:13:57;;;;;;;93.25;41.85;;;;;;;2.82;100.00;99509.47;8398582;28;20048;-75
2022/12/05 14:18:22;;;;;;;93.95;42.03;;;;;;;2.81;100.00;99518.53;8398518;28;20047;-75
2022/12/05 14:22:42;;;;;;;92.15;40.28;;;;;;;2.83;100.00;99516.44;8395913;28;20049;-75
2022/12/05 14:27:28;;;;;;;97.50;43.85;;;;;;;2.80;100.00;99522.25;8386465;28;20055;-75
2022/12/05 14:31:57;;;;;;;94.93;42.70;;;;;;;2.92;100.00;99509.59;8282878;28;20474;-75
2022/12/05 14:36:05;;;;;;;98.80;42.80;;;;;;;2.96;100.00;99509.91;8294845;28;20053;-75
2022/12/05 14:40:38;;;;;;;106.53;46.58;;;;;;;2.94;100.00;99507.50;8278636;28;20058;-75
2022/12/05 14:44:45;;;;;;;120.43;50.80;;;;;;;2.83;100.00;99500.41;8229398;28;20047;-75
2022/12/05 14:48:48;;;;;;;119.38;51.90;;;;;;;2.84;100.00;99501.22;8230029;28;20059;-75
2022/12/05 14:53:13;;;;;;;118.28;51.47;;;;;;;2.86;100.00;99499.91;8230003;28;20058;-75
2022/12/05 14:57:15;;;;;;;118.40;51.00;;;;;;;2.86;100.00;99505.25;8229403;28;20046;-75
2022/12/05 15:01:25;;;;;;;127.28;53.10;;;;;;;2.84;100.00;99507.38;8229594;28;20049;-75
2022/12/05 15:05:33;;;;;;;142.63;57.25;;;;;;;2.89;100.00;99510.09;8229225;28;20050;-75
2022/12/05 15:09:56;;;;;;;117.03;48.83;;;;;;;2.87;100.00;99501.53;8287556;28;20046;-75
2022/12/05 15:14:11;;;;;;;111.25;47.13;;;;;;;2.87;100.00;99501.53;8280689;28;20046;-75
2022/12/05 15:18:34;;;;;;;132.35;52.00;;;;;;;2.87;100.00;99512.19;8276947;28;20052;-75
2022/12/05 15:22:56;;;;;;;147.30;57.10;;;;;;;2.85;100.00;99509.00;8325803;28;20059;-75
2022/12/05 15:27:04;;;;;;;171.93;62.53;;;;;;;2.87;100.00;99520.19;8293173;28;20049;-75
2022/12/05 15:31:11;;;;;;;183.23;66.78;;;;;;;2.86;100.00;99518.59;8284830;28;20137;-75
2022/12/05 15:35:14;;;;;;;148.00;57.75;;;;;;;2.89;100.00;99520.78;8277404;28;20077;-75
2022/12/05 15:39:27;;;;;;;151.43;59.28;;;;;;;2.89;100.00;99510.09;8276866;28;20516;-76
2022/12/05 15:43:29;;;;;;;138.55;57.38;;;;;;;2.92;100.00;99514.94;8303550;28;20056;-75
2022/12/05 15:47:30;;;;;;;123.63;52.85;;;;;;;2.91;100.00;99513.31;8324793;28;20057;-75
2022/12/05 15:51:36;;;;;;;116.63;51.58;;;;;;;2.89;100.00;99520.78;8324893;28;20495;-76
2022/12/05 15:55:42;;;;;;;105.00;48.40;;;;;;;2.91;100.00;99502.63;8324661;28;20049;-75
2022/12/05 15:59:47;;;;;;;102.63;48.25;;;;;;;2.93;100.00;99513.88;8308127;28;20052;-75
2022/12/05 16:03:48;;;;;;;111.25;48.45;;;;;;;2.96;100.00;99516.03;8324010;28;20060;-76
2022/12/05 16:07:50;;;;;;;109.25;48.88;;;;;;;3.01;100.00;99501.16;8324210;28;20128;-75
2022/12/05 16:11:58;;;;;;;124.78;51.08;;;;;;;3.10;100.00;99515.66;8385225;28;20044;-76
2022/12/05 16:15:59;;;;;;;118.03;49.57;;;;;;;3.16;100.00;99525.34;8365522;28;20395;-75
2022/12/05 16:20:16;;;;;;;127.80;53.05;;;;;;;3.11;100.00;99527.97;8393996;28;20056;-75
2022/12/05 16:24:20;;;;;;;127.80;53.42;;;;;;;3.14;100.00;99527.44;8394230;28;20044;-76
2022/12/05 16:28:21;;;;;;;119.75;52.35;;;;;;;3.16;100.00;99541.34;8393631;28;20051;-75
2022/12/05 16:32:23;;;;;;;109.43;47.40;;;;;;;3.21;100.00;99528.06;8392267;28;20044;-76
2022/12/05 16:36:25;;;;;;;113.60;49.55;;;;;;;3.21;100.00;99522.72;8392975;28;20087;-75
2022/12/05 16:40:26;;;;;;;117.45;50.75;;;;;;;3.24;100.00;99522.22;8358078;28;20056;-75
2022/12/05 16:44:27;;;;;;;157.07;61.08;;;;;;;3.17;100.00;99526.97;8385963;28;20087;-77
2022/12/05 16:48:29;;;;;;;122.22;50.70;;;;;;;3.18;100.00;99528.56;8404971;28;20494;-76
2022/12/05 16:52:30;;;;;;;128.50;51.42;;;;;;;3.23;100.00;99526.75;8424833;28;20127;-77
2022/12/05 16:56:32;;;;;;;117.70;53.10;;;;;;;3.23;100.00;99525.94;8425918;28;20090;-77
2022/12/05 17:00:34;;;;;;;129.00;52.65;;;;;;;3.26;100.00;99526.25;8404149;28;20134;-77
2022/12/05 17:04:34;;;;;;;112.70;48.08;;;;;;;3.28;100.00;99523.31;8407813;28;20480;-77
2022/12/05 17:08:36;;;;;;;111.47;47.85;;;;;;;3.31;100.00;99523.66;8437831;28;20410;-77
2022/12/05 17:12:37;;;;;;;125.95;52.97;;;;;;;3.28;100.00;99539.34;8436603;28;20135;-79
2022/12/05 17:16:38;;;;;;;141.95;56.17;;;;;;;3.25;100.00;99540.66;8436521;28;20047;-77
2022/12/05 17:20:41;;;;;;;127.30;53.05;;;;;;;3.29;100.00;99541.78;8437004;28;20063;-77
2022/12/05 17:24:42;;;;;;;123.75;53.65;;;;;;;3.36;100.00;99541.59;8436120;28;20044;-78
2022/12/05 17:28:44;;;;;;;126.47;51.95;;;;;;;3.37;100.00;99537.84;8436801;28;20044;-77
2022/12/05 17:32:45;;;;;;;135.82;52.10;;;;;;;3.44;100.00;99533.09;8401266;28;20406;-77
2022/12/05 17:36:46;;;;;;;122.05;50.47;;;;;;;3.45;100.00;99540.06;8437278;28;20047;-77
2022/12/05 17:40:47;;;;;;;130.10;55.55;;;;;;;3.49;100.00;99545.72;8437018;28;20128;-77
2022/12/05 17:44:48;;;;;;;123.82;53.53;;;;;;;3.49;100.00;99551.84;8437195;28;20048;-77
2022/12/05 17:48:50;;;;;;;135.57;55.60;;;;;;;3.50;100.00;99542.78;8437032;28;20055;-76
2022/12/05 17:52:54;;;;;;;128.98;48.72;;;;;;;3.55;100.00;99555.38;8383699;28;20104;-77
2022/12/05 17:56:55;;;;;;;112.80;47.25;;;;;;;3.57;100.00;99554.09;8435955;28;20130;-76
2022/12/05 18:00:57;;;;;;;114.00;48.83;;;;;;;3.59;100.00;99545.81;8388408;28;20413;-77
2022/12/05 18:04:58;;;;;;;116.75;49.10;;;;;;;3.62;100.00;99551.47;8436700;28;20044;-76
2022/12/05 18:08:59;;;;;;;115.70;49.20;;;;;;;3.65;100.00;99556.28;8400790;28;20099;-76
2022/12/05 18:13:00;;;;;;;107.85;47.65;;;;;;;3.68;100.00;99555.78;8435718;28;20036;-77
2022/12/05 18:17:02;;;;;;;112.30;47.80;;;;;;;3.72;100.00;99556.91;8397510;28;20504;-77
2022/12/05 18:21:04;;;;;;;115.70;48.78;;;;;;;3.76;100.00;99558.00;8431593;28;20052;-77
2022/12/05 18:25:06;;;;;;;103.47;46.83;;;;;;;3.80;100.00;99552.97;8400086;28;20048;-77
2022/12/05 18:29:07;;;;;;;110.20;48.15;;;;;;;3.81;100.00;99550.03;8430677;28;20102;-77
2022/12/05 18:33:08;;;;;;;113.32;47.65;;;;;;;3.82;100.00;99557.00;8423445;28;20090;-76
2022/12/05 18:37:10;;;;;;;143.20;58.60;;;;;;;3.84;100.00;99556.75;8431400;28;20048;-76
2022/12/05 18:41:11;;;;;;;181.07;80.18;;;;;;;3.85;100.00;99557.56;8430516;28;20047;-76
2022/12/05 18:45:12;;;;;;;199.80;83.85;;;;;;;3.83;100.00;99558.59;8393848;28;20052;-76
2022/12/05 18:49:13;;;;;;;185.90;77.38;;;;;;;3.82;100.00;99546.31;8394269;28;20047;-76
2022/12/05 18:53:14;;;;;;;176.40;76.18;;;;;;;3.82;100.00;99546.31;8430560;28;20059;-76
2022/12/05 18:57:16;;;;;;;187.20;76.65;;;;;;;3.83;100.00;99547.91;8430096;28;20478;-76
2022/12/05 19:01:17;;;;;;;181.52;77.85;;;;;;;3.83;100.00;99539.91;8429624;28;20040;-76
2022/12/05 19:05:18;;;;;;;171.77;76.28;;;;;;;3.81;100.00;99536.66;8420667;28;20123;-77
2022/12/05 19:09:21;;;;;;;185.18;74.60;;;;;;;3.80;100.00;99537.75;8421494;28;20054;-77
2022/12/05 19:13:22;;;;;;;163.88;69.93;;;;;;;3.80;100.00;99537.75;8420678;28;20499;-77
2022/12/05 19:17:23;;;;;;;163.40;71.95;;;;;;;3.79;100.00;99536.13;8390176;28;20051;-76
2022/12/05 19:21:27;;;;;;;162.73;69.90;;;;;;;3.80;100.00;99535.09;8420066;28;20059;-76